Time;durP1;ratioP1;P1;durP2;ratioP2;P2;SDS_P1;SDS_P2;PMS_P1;PMS_P2;Temp;Humidity;BMP_temperature;BMP_pressure;BME280_temperature;BME280_humidity;BME280_pressure;Samples;Min_cycle;Max_cycle;Signal;HPM_P1;HPM_P2
2022/06/08 00:01:25;;;;;;;5.50;4.13;;;;;;;13.09;100.00;100311.31;4953694;28;20217;-70
2022/06/08 00:03:57;;;;;;;4.90;4.17;;;;;;;13.03;100.00;100311.53;4957287;28;20210;-71
2022/06/08 00:06:23;;;;;;;6.10;4.17;;;;;;;13.05;100.00;100310.59;4949095;28;20251;-70
2022/06/08 00:08:51;;;;;;;6.03;4.27;;;;;;;13.05;100.00;100309.72;4946194;28;20209;-70
2022/06/08 00:11:19;;;;;;;7.30;4.23;;;;;;;13.02;100.00;100312.47;4958100;28;20252;-71
2022/06/08 00:13:46;;;;;;;5.47;4.37;;;;;;;13.00;100.00;100319.53;4945700;28;20199;-70
2022/06/08 00:16:14;;;;;;;6.20;4.30;;;;;;;13.03;100.00;100317.66;4948166;28;20232;-70
2022/06/08 00:18:40;;;;;;;6.27;4.87;;;;;;;12.97;100.00;100307.41;4951184;28;20293;-70
2022/06/08 00:21:07;;;;;;;5.97;4.83;;;;;;;12.96;100.00;100313.56;4948554;28;20611;-70
2022/06/08 00:23:33;;;;;;;5.73;4.27;;;;;;;12.90;100.00;100312.97;4951363;28;20212;-70
2022/06/08 00:26:00;;;;;;;5.70;4.40;;;;;;;12.90;100.00;100313.81;4946700;28;20234;-70
2022/06/08 00:28:28;;;;;;;4.40;4.00;;;;;;;12.81;100.00;100312.44;4946963;28;20209;-71
2022/06/08 00:30:55;;;;;;;6.70;4.73;;;;;;;12.85;100.00;100305.31;4948541;28;20197;-70
2022/06/08 00:33:22;;;;;;;5.27;4.27;;;;;;;12.82;100.00;100308.91;4958202;28;20200;-70
2022/06/08 00:35:50;;;;;;;5.80;4.60;;;;;;;12.78;100.00;100307.31;4934985;29;20678;-70
2022/06/08 00:38:17;;;;;;;8.13;4.57;;;;;;;12.84;100.00;100299.22;4935948;28;20256;-70
2022/06/08 00:40:51;;;;;;;6.00;4.63;;;;;;;12.82;100.00;100303.69;4957346;28;20199;-71
2022/06/08 00:43:18;;;;;;;6.57;5.00;;;;;;;12.71;100.00;100305.84;4935778;28;20208;-70
2022/06/08 00:45:47;;;;;;;5.40;4.60;;;;;;;12.68;100.00;100304.22;4953645;28;20203;-70
2022/06/08 00:48:13;;;;;;;8.43;4.30;;;;;;;12.75;100.00;100301.34;4936396;28;20610;-70
2022/06/08 00:50:44;;;;;;;6.33;4.80;;;;;;;12.67;100.00;100302.50;4934879;28;20216;-70
2022/06/08 00:53:14;;;;;;;6.73;4.37;;;;;;;12.72;100.00;100304.09;4931908;28;20200;-70
2022/06/08 00:55:41;;;;;;;6.47;4.80;;;;;;;12.68;100.00;100298.13;4959788;28;20704;-70
2022/06/08 00:58:14;;;;;;;5.57;4.87;;;;;;;12.54;100.00;100295.22;4929103;29;20568;-70
2022/06/08 01:00:42;;;;;;;5.73;4.60;;;;;;;12.56;100.00;100296.88;4931929;28;20444;-70
2022/06/08 01:03:12;;;;;;;5.60;4.90;;;;;;;12.54;100.00;100303.06;4950556;28;20303;-70
2022/06/08 01:05:46;;;;;;;7.33;4.87;;;;;;;12.44;100.00;100295.59;4940339;28;20215;-71
2022/06/08 01:08:23;;;;;;;6.20;3.93;;;;;;;12.54;100.00;100298.69;4947076;28;20556;-70
2022/06/08 01:10:54;;;;;;;6.83;4.80;;;;;;;12.56;100.00;100302.09;4947331;28;20598;-70
2022/06/08 01:13:22;;;;;;;5.97;4.70;;;;;;;12.52;100.00;100299.66;4940782;28;20206;-70
2022/06/08 01:15:50;;;;;;;5.17;4.23;;;;;;;12.50;100.00;100295.34;4931663;29;20213;-70
2022/06/08 01:18:20;;;;;;;6.47;5.13;;;;;;;12.51;100.00;100290.97;4931664;29;20290;-70
2022/06/08 01:20:50;;;;;;;6.30;4.73;;;;;;;12.42;100.00;100286.94;4952154;28;20186;-70
2022/06/08 01:23:22;;;;;;;7.30;4.77;;;;;;;12.42;100.00;100279.09;4949492;28;20638;-70
2022/06/08 01:26:08;;;;;;;7.03;5.20;;;;;;;12.45;100.00;100280.72;4950502;28;20204;-70
2022/06/08 01:28:44;;;;;;;6.33;4.80;;;;;;;12.48;100.00;100275.38;4928276;28;20219;-71
2022/06/08 01:31:21;;;;;;;7.73;5.53;;;;;;;12.47;100.00;100278.91;4950185;28;20734;-70
2022/06/08 01:33:58;;;;;;;7.10;5.00;;;;;;;12.42;100.00;100283.50;4931521;29;20220;-70
2022/06/08 01:36:38;;;;;;;6.53;4.70;;;;;;;12.42;100.00;100278.25;4955472;28;20476;-70
2022/06/08 01:39:09;;;;;;;7.43;5.13;;;;;;;12.44;100.00;100281.66;4954693;28;20205;-73
2022/06/08 01:42:00;;;;;;;8.80;5.60;;;;;;;12.47;100.00;100276.28;4946879;28;20730;-70
2022/06/08 01:44:41;;;;;;;6.50;5.27;;;;;;;12.50;100.00;100268.34;4945252;28;20698;-70
2022/06/08 01:47:12;;;;;;;6.63;5.53;;;;;;;12.47;100.00;100273.69;4950218;28;20232;-69
2022/06/08 01:49:44;;;;;;;6.83;4.93;;;;;;;12.46;100.00;100269.38;4946623;28;20684;-70
2022/06/08 01:52:23;;;;;;;9.43;5.47;;;;;;;12.44;100.00;100273.81;4932806;28;20208;-70
2022/06/08 01:55:01;;;;;;;7.37;5.23;;;;;;;12.44;100.00;100269.44;4942949;28;20286;-70
2022/06/08 01:57:47;;;;;;;8.20;5.97;;;;;;;12.40;100.00;100280.06;4924400;28;20237;-70
2022/06/08 02:00:19;;;;;;;8.50;6.00;;;;;;;12.44;100.00;100274.66;4935837;28;20214;-70
2022/06/08 02:02:54;;;;;;;8.23;5.23;;;;;;;12.46;100.00;100272.00;4949083;28;20219;-72
2022/06/08 02:05:27;;;;;;;8.73;5.47;;;;;;;12.52;100.00;100268.28;4925170;28;20215;-70
2022/06/08 02:08:00;;;;;;;7.93;5.40;;;;;;;12.50;100.00;100270.94;4932576;29;20234;-71
2022/06/08 02:10:38;;;;;;;9.00;5.90;;;;;;;12.36;100.00;100278.50;4927425;28;20210;-69
2022/06/08 02:13:09;;;;;;;8.03;6.07;;;;;;;12.46;100.00;100266.75;4947229;28;20203;-72
2022/06/08 02:15:43;;;;;;;7.13;5.67;;;;;;;12.35;100.00;100272.41;4932065;29;20235;-70
2022/06/08 02:18:16;;;;;;;7.50;5.73;;;;;;;12.36;100.00;100268.88;4930069;28;20227;-70
2022/06/08 02:20:48;;;;;;;6.50;5.60;;;;;;;12.38;100.00;100268.81;4954116;28;20198;-70
2022/06/08 02:23:23;;;;;;;6.53;5.47;;;;;;;12.31;100.00;100271.69;4948670;28;20288;-70
2022/06/08 02:25:56;;;;;;;8.80;6.77;;;;;;;12.41;100.00;100268.72;4931815;28;20553;-73
2022/06/08 02:28:29;;;;;;;7.40;6.03;;;;;;;12.37;100.00;100262.75;4949936;28;20630;-70
2022/06/08 02:30:59;;;;;;;8.07;6.20;;;;;;;12.41;100.00;100272.16;4930981;29;20203;-70
2022/06/08 02:36:20;;;;;;;7.20;6.23;;;;;;;12.40;100.00;100267.00;4934084;28;20720;-70
2022/06/08 02:38:55;;;;;;;9.53;7.40;;;;;;;12.38;100.00;100267.03;4936821;28;20571;-70
2022/06/08 02:41:27;;;;;;;9.30;6.40;;;;;;;12.38;100.00;100269.66;4951322;28;20200;-70
2022/06/08 02:43:58;;;;;;;10.30;6.63;;;;;;;12.39;100.00;100276.59;4931723;29;20254;-70
2022/06/08 02:46:38;;;;;;;10.50;7.47;;;;;;;12.34;100.00;100270.69;4934627;28;20262;-70
2022/06/08 02:49:05;;;;;;;7.50;6.00;;;;;;;12.30;100.00;100274.34;4929440;28;20304;-72
2022/06/08 02:51:34;;;;;;;8.07;6.20;;;;;;;12.42;100.00;100265.19;4931039;28;20241;-70
2022/06/08 02:54:05;;;;;;;8.60;6.43;;;;;;;12.47;100.00;100263.22;4932752;29;20207;-71
2022/06/08 02:57:05;;;;;;;9.03;7.00;;;;;;;12.44;100.00;100271.22;4931369;28;20622;-70
2022/06/08 02:59:40;;;;;;;8.93;6.57;;;;;;;12.35;100.00;100269.81;4932952;28;20278;-70
2022/06/08 03:02:14;;;;;;;10.57;6.70;;;;;;;12.32;100.00;100269.91;4930287;28;20209;-70
2022/06/08 03:04:46;;;;;;;8.37;6.97;;;;;;;12.42;100.00;100267.81;4943542;28;20210;-70
2022/06/08 03:07:17;;;;;;;10.27;7.90;;;;;;;12.46;100.00;100266.75;4952441;28;20287;-70
2022/06/08 03:09:46;;;;;;;8.77;6.93;;;;;;;12.47;100.00;100261.47;4933001;28;20207;-70
2022/06/08 03:12:19;;;;;;;9.90;7.60;;;;;;;12.39;100.00;100268.75;4953777;28;20572;-71
2022/06/08 03:14:48;;;;;;;9.80;7.60;;;;;;;12.37;100.00;100269.75;4937289;29;20199;-71
2022/06/08 03:17:17;;;;;;;7.93;6.23;;;;;;;12.40;100.00;100267.88;4935690;28;20324;-70
2022/06/08 03:19:45;;;;;;;8.97;7.20;;;;;;;12.35;100.00;100269.81;4957566;28;20207;-71
2022/06/08 03:22:14;;;;;;;10.53;7.93;;;;;;;12.38;100.00;100269.66;4934874;28;20299;-70
2022/06/08 03:24:41;;;;;;;9.60;7.53;;;;;;;12.34;100.00;100268.09;4952529;28;20544;-70
2022/06/08 03:27:08;;;;;;;9.70;7.60;;;;;;;12.39;100.00;100267.91;4940069;28;20250;-70
2022/06/08 03:29:37;;;;;;;11.37;6.97;;;;;;;12.35;100.00;100268.94;4939823;28;20249;-71
2022/06/08 03:32:06;;;;;;;10.13;7.70;;;;;;;12.32;100.00;100262.91;4955371;28;20298;-71
2022/06/08 03:34:33;;;;;;;10.10;6.53;;;;;;;12.31;100.00;100271.69;4939771;28;20204;-70
2022/06/08 03:36:59;;;;;;;10.50;7.73;;;;;;;12.30;100.00;100276.97;4936938;29;20235;-71
2022/06/08 03:39:29;;;;;;;10.77;7.33;;;;;;;12.32;100.00;100281.22;4935990;28;20210;-70
2022/06/08 03:41:56;;;;;;;10.30;7.67;;;;;;;12.30;100.00;100277.81;4936011;29;20571;-70
2022/06/08 03:44:23;;;;;;;10.97;7.00;;;;;;;12.38;100.00;100274.88;4952664;28;20231;-71
2022/06/08 03:46:55;;;;;;;11.13;8.33;;;;;;;12.40;100.00;100274.84;4953425;28;20598;-70
2022/06/08 03:49:24;;;;;;;11.27;8.17;;;;;;;12.44;100.00;100279.91;4938417;28;20567;-71
2022/06/08 03:51:54;;;;;;;12.10;8.93;;;;;;;12.44;100.00;100276.44;4936081;28;20215;-70
2022/06/08 03:54:24;;;;;;;9.53;7.47;;;;;;;12.52;100.00;100279.56;4934867;28;20210;-71
2022/06/08 03:56:55;;;;;;;11.30;8.10;;;;;;;12.56;100.00;100288.16;4951688;28;20235;-70
2022/06/08 03:59:23;;;;;;;11.43;8.80;;;;;;;12.60;100.00;100282.75;4948477;28;20717;-70
2022/06/08 04:01:54;;;;;;;13.03;8.87;;;;;;;12.64;100.00;100288.72;4932034;28;20616;-70
2022/06/08 04:04:21;;;;;;;13.87;8.77;;;;;;;12.67;100.00;100283.34;4934248;28;20531;-70
2022/06/08 04:06:49;;;;;;;12.27;8.90;;;;;;;12.68;100.00;100285.91;4930181;29;20223;-70
2022/06/08 04:09:17;;;;;;;14.97;9.47;;;;;;;12.70;100.00;100278.00;4930920;28;20671;-70
2022/06/08 04:11:47;;;;;;;9.87;8.40;;;;;;;12.75;100.00;100286.53;4934383;29;20289;-70
2022/06/08 04:14:13;;;;;;;11.27;8.33;;;;;;;12.86;100.00;100283.47;4936559;28;20206;-70
2022/06/08 04:16:42;;;;;;;12.37;8.47;;;;;;;12.93;100.00;100278.81;4933511;28;20255;-71
2022/06/08 04:19:12;;;;;;;11.40;8.80;;;;;;;12.97;100.00;100280.41;4938648;29;20207;-70
2022/06/08 04:21:39;;;;;;;13.07;9.37;;;;;;;12.95;100.00;100277.00;4936737;28;20204;-70
2022/06/08 04:24:11;;;;;;;13.73;9.93;;;;;;;12.95;100.00;100277.84;4949377;28;20398;-70
2022/06/08 04:26:42;;;;;;;13.47;9.60;;;;;;;13.02;100.00;100281.06;4936310;28;20738;-70
2022/06/08 04:29:16;;;;;;;14.87;9.80;;;;;;;13.02;100.00;100283.69;4932176;28;20218;-71
2022/06/08 04:31:45;;;;;;;14.10;9.57;;;;;;;13.02;100.00;100287.16;4935382;28;20201;-70
2022/06/08 04:34:22;;;;;;;18.07;10.30;;;;;;;13.07;100.00;100285.19;4929253;28;20877;-71
2022/06/08 04:36:49;;;;;;;13.27;10.00;;;;;;;13.19;100.00;100288.19;4946186;28;20217;-70
2022/06/08 04:39:17;;;;;;;15.17;9.97;;;;;;;13.37;100.00;100279.59;4931087;28;20225;-70
2022/06/08 04:41:50;;;;;;;13.10;10.17;;;;;;;13.52;100.00;100288.53;4932704;29;20287;-70
2022/06/08 04:44:18;;;;;;;15.83;10.10;;;;;;;13.67;100.00;100284.41;4934681;29;20205;-70
2022/06/08 04:46:45;;;;;;;14.97;10.30;;;;;;;13.81;100.00;100289.03;4929353;28;20226;-70
2022/06/08 04:49:18;;;;;;;15.90;10.90;;;;;;;13.86;100.00;100284.44;4931483;29;20232;-70
2022/06/08 04:51:46;;;;;;;15.10;10.10;;;;;;;13.97;100.00;100291.81;4947234;28;20202;-70
2022/06/08 04:54:16;;;;;;;14.30;10.20;;;;;;;14.07;100.00;100292.22;4929843;28;21387;-71
2022/06/08 04:56:44;;;;;;;15.00;10.23;;;;;;;14.21;100.00;100292.44;4944651;23;20639;-74
2022/06/08 04:59:10;;;;;;;17.27;9.57;;;;;;;14.32;100.00;100289.34;4909364;29;20233;-73
2022/06/08 05:01:41;;;;;;;12.30;9.63;;;;;;;14.44;100.00;100288.75;4916881;29;20291;-73
2022/06/08 05:04:11;;;;;;;11.73;8.73;;;;;;;14.51;100.00;100282.31;4913634;29;20214;-73
2022/06/08 05:06:39;;;;;;;12.70;9.23;;;;;;;14.62;100.00;100291.47;4903763;29;20242;-71
2022/06/08 05:09:06;;;;;;;11.47;8.23;;;;;;;14.74;100.00;100277.75;4898409;29;20235;-73
2022/06/08 05:11:38;;;;;;;12.43;8.33;;;;;;;14.91;100.00;100284.78;4937728;23;20180;-74
2022/06/08 05:14:05;;;;;;;13.87;8.13;;;;;;;15.07;100.00;100285.69;4959765;28;20209;-74
2022/06/08 05:16:32;;;;;;;12.07;8.20;;;;;;;15.26;100.00;100287.41;4941153;28;20198;-74
2022/06/08 05:19:01;;;;;;;12.83;8.13;;;;;;;15.28;100.00;100290.81;4943345;28;20225;-74
2022/06/08 05:21:28;;;;;;;10.00;8.00;;;;;;;15.32;100.00;100287.94;4955369;28;20202;-74
2022/06/08 05:23:54;;;;;;;10.20;7.20;;;;;;;15.42;100.00;100284.84;4944140;28;20219;-74
2022/06/08 05:26:42;;;;;;;10.13;7.03;;;;;;;15.59;100.00;100282.19;4946555;28;20213;-74
2022/06/08 05:29:09;;;;;;;8.33;6.93;;;;;;;15.69;100.00;100279.94;4932259;28;20204;-74
2022/06/08 05:31:37;;;;;;;9.07;7.27;;;;;;;15.80;100.00;100282.88;4909992;29;20224;-74
2022/06/08 05:34:03;;;;;;;8.30;6.67;;;;;;;15.94;100.00;100276.88;4927501;28;20217;-74
2022/06/08 05:36:30;;;;;;;8.47;7.03;;;;;;;16.06;100.00;100270.94;4925232;28;20198;-74
2022/06/08 05:39:00;;;;;;;8.70;6.70;;;;;;;16.20;100.00;100272.81;4926094;28;20279;-74
2022/06/08 05:41:32;;;;;;;7.40;6.43;;;;;;;16.31;100.00;100266.97;4940377;28;20213;-74
2022/06/08 05:44:00;;;;;;;8.47;5.93;;;;;;;16.36;100.00;100275.44;4942343;29;20209;-74
2022/06/08 05:46:27;;;;;;;7.00;6.13;;;;;;;16.45;100.00;100272.31;4932745;28;20488;-74
2022/06/08 05:48:59;;;;;;;7.60;5.60;;;;;;;16.58;100.00;100275.06;4926318;28;20192;-74
2022/06/08 05:51:27;;;;;;;7.23;5.63;;;;;;;16.65;100.00;100279.06;4926924;28;20343;-74
2022/06/08 05:53:55;;;;;;;7.63;5.53;;;;;;;16.73;100.00;100288.31;4927729;28;20226;-74
2022/06/08 05:56:21;;;;;;;7.53;5.83;;;;;;;16.83;100.00;100276.31;4927844;28;20245;-74
2022/06/08 05:58:50;;;;;;;6.57;5.83;;;;;;;16.94;100.00;100273.94;4935217;28;20211;-74
2022/06/08 06:01:18;;;;;;;6.27;5.20;;;;;;;17.06;100.00;100280.25;4947311;28;20285;-74
2022/06/08 06:03:45;;;;;;;5.80;5.07;;;;;;;17.13;100.00;100279.00;4923301;28;20210;-74
2022/06/08 06:06:11;;;;;;;6.23;5.27;;;;;;;17.25;100.00;100281.81;4942850;28;20218;-74
2022/06/08 06:08:38;;;;;;;6.50;4.67;;;;;;;17.35;100.00;100275.91;4933965;28;20194;-73
2022/06/08 06:11:13;;;;;;;6.90;5.00;;;;;;;17.45;100.00;100280.63;4944829;28;20216;-74
2022/06/08 06:13:43;;;;;;;5.53;4.63;;;;;;;17.57;100.00;100283.38;4941175;28;20626;-74
2022/06/08 06:16:15;;;;;;;5.00;4.50;;;;;;;17.66;100.00;100281.09;4927991;29;20238;-73
2022/06/08 06:18:43;;;;;;;6.97;4.43;;;;;;;17.76;100.00;100279.59;4942443;28;20226;-73
2022/06/08 06:21:25;;;;;;;5.90;4.40;;;;;;;17.92;100.00;100280.41;4941819;28;20217;-73
2022/06/08 06:23:58;;;;;;;4.70;4.10;;;;;;;18.04;100.00;100286.69;4925366;28;20206;-74
2022/06/08 06:26:49;;;;;;;4.73;3.93;;;;;;;18.13;97.27;100291.41;4939723;28;20711;-74
2022/06/08 06:29:26;;;;;;;3.67;3.30;;;;;;;18.26;95.52;100295.91;4942021;28;20663;-74
2022/06/08 06:32:24;;;;;;;4.17;3.63;;;;;;;18.47;97.29;100291.88;4917280;28;20222;-73
2022/06/08 06:34:54;;;;;;;3.97;3.50;;;;;;;18.62;94.58;100291.84;4926158;29;20222;-74
2022/06/08 06:37:21;;;;;;;3.27;2.97;;;;;;;18.78;92.29;100302.25;4943887;28;21594;-73
2022/06/08 06:39:49;;;;;;;3.30;3.00;;;;;;;18.89;89.43;100302.41;4925837;29;20716;-74
2022/06/08 06:42:26;;;;;;;3.20;2.90;;;;;;;18.96;89.28;100302.84;4944367;28;20222;-73
2022/06/08 06:45:17;;;;;;;3.93;3.10;;;;;;;19.06;89.77;100306.56;4943633;28;20221;-74
2022/06/08 06:47:49;;;;;;;3.93;2.60;;;;;;;19.19;88.08;100306.59;4931466;29;20683;-73
2022/06/08 06:50:26;;;;;;;3.17;2.30;;;;;;;19.24;86.96;100307.13;4943745;28;20758;-74
2022/06/08 06:52:54;;;;;;;4.10;2.53;;;;;;;19.24;88.63;100289.50;4922666;29;20245;-73
2022/06/08 06:55:24;;;;;;;3.40;2.67;;;;;;;19.29;88.15;100294.44;4940808;28;20209;-73
2022/06/08 06:57:53;;;;;;;3.57;2.30;;;;;;;19.47;86.57;100301.16;4944171;28;20218;-73
2022/06/08 07:00:23;;;;;;;5.20;2.80;;;;;;;19.64;85.42;100297.31;4942842;28;20683;-74
2022/06/08 07:02:49;;;;;;;4.43;2.60;;;;;;;19.74;87.64;100292.28;4941923;28;20237;-73
2022/06/08 07:05:19;;;;;;;2.63;2.30;;;;;;;19.81;83.14;100296.19;4924582;28;20207;-71
2022/06/08 07:07:47;;;;;;;3.27;2.63;;;;;;;19.82;82.89;100286.44;4936457;28;20214;-71
2022/06/08 07:10:14;;;;;;;2.57;2.37;;;;;;;19.98;82.65;100288.84;4940666;28;20301;-71
2022/06/08 07:12:41;;;;;;;3.03;2.40;;;;;;;20.12;81.85;100291.38;4944235;28;20234;-71
2022/06/08 07:15:09;;;;;;;2.70;2.10;;;;;;;20.22;79.89;100286.25;4944672;28;20294;-71
2022/06/08 07:17:35;;;;;;;2.27;2.00;;;;;;;20.29;80.68;100289.31;4940527;28;20222;-71
2022/06/08 07:20:03;;;;;;;1.87;1.77;;;;;;;20.29;78.43;100295.44;4944195;28;20229;-71
2022/06/08 07:22:32;;;;;;;3.13;2.00;;;;;;;20.38;79.47;100293.94;4945485;28;20256;-71
2022/06/08 07:25:00;;;;;;;2.50;2.13;;;;;;;20.41;77.82;100286.63;4948147;28;20213;-71
2022/06/08 07:27:26;;;;;;;2.17;1.97;;;;;;;20.56;78.13;100295.25;4949630;28;20202;-71
2022/06/08 07:29:53;;;;;;;2.60;1.93;;;;;;;20.66;78.64;100290.16;4947881;28;20203;-71
2022/06/08 07:32:20;;;;;;;2.73;1.60;;;;;;;20.80;76.85;100295.25;4943619;28;20462;-71
2022/06/08 07:34:46;;;;;;;2.33;2.07;;;;;;;20.86;76.28;100287.81;4946900;28;20951;-71
2022/06/08 07:37:13;;;;;;;2.07;1.87;;;;;;;20.94;77.14;100281.00;4946873;28;20207;-71
2022/06/08 07:39:39;;;;;;;2.37;2.17;;;;;;;21.04;77.18;100272.38;4946799;28;20248;-71
2022/06/08 07:42:08;;;;;;;2.63;2.20;;;;;;;21.11;76.50;100271.78;4929573;28;20218;-71
2022/06/08 07:44:34;;;;;;;2.13;1.90;;;;;;;21.18;73.41;100275.66;4947616;28;20195;-71
2022/06/08 07:47:00;;;;;;;2.00;1.50;;;;;;;21.31;74.43;100278.19;4950535;28;20210;-71
2022/06/08 07:49:39;;;;;;;1.93;1.43;;;;;;;21.33;72.37;100278.91;4944491;28;20209;-71
2022/06/08 07:52:07;;;;;;;2.13;1.63;;;;;;;21.54;70.73;100278.25;4945717;28;20225;-71
2022/06/08 07:54:34;;;;;;;2.87;1.70;;;;;;;21.62;71.77;100269.69;4943679;28;20203;-71
2022/06/08 07:57:02;;;;;;;1.50;1.40;;;;;;;21.72;69.46;100266.22;4946397;28;20206;-71
2022/06/08 07:59:31;;;;;;;1.43;1.33;;;;;;;21.75;71.56;100263.31;4943434;28;20314;-71
2022/06/08 08:01:58;;;;;;;1.67;1.13;;;;;;;21.78;68.76;100266.72;4950872;28;20622;-71
2022/06/08 08:04:24;;;;;;;1.40;1.30;;;;;;;21.80;68.77;100270.09;4947109;28;20688;-71
2022/06/08 08:06:51;;;;;;;1.40;1.30;;;;;;;21.97;68.11;100268.72;4947195;28;20618;-71
2022/06/08 08:09:18;;;;;;;1.30;1.20;;;;;;;21.96;66.50;100269.72;4946143;28;20471;-71
2022/06/08 08:11:46;;;;;;;1.47;1.37;;;;;;;22.06;67.89;100265.38;4949534;28;20214;-71
2022/06/08 08:14:13;;;;;;;1.60;1.50;;;;;;;22.18;67.23;100276.78;4940337;28;20668;-71
2022/06/08 08:16:42;;;;;;;2.77;1.53;;;;;;;22.26;65.22;100285.00;4949791;28;20671;-71
2022/06/08 08:19:09;;;;;;;1.37;1.07;;;;;;;22.30;65.06;100278.47;4948918;28;20242;-71
2022/06/08 08:21:37;;;;;;;1.67;1.40;;;;;;;22.39;62.68;100283.06;4949939;28;20255;-71
2022/06/08 08:24:04;;;;;;;1.50;1.40;;;;;;;22.60;63.28;100275.16;4944922;28;20210;-71
2022/06/08 08:26:30;;;;;;;1.20;1.10;;;;;;;22.62;64.05;100273.22;4948313;28;20213;-71
2022/06/08 08:28:57;;;;;;;1.30;1.20;;;;;;;22.84;64.08;100269.59;4943447;28;20588;-71
2022/06/08 08:31:24;;;;;;;1.30;1.20;;;;;;;22.86;62.94;100272.97;4947268;28;20598;-71
2022/06/08 08:33:52;;;;;;;1.00;1.00;;;;;;;22.98;64.09;100273.78;4945885;28;20210;-71
2022/06/08 08:36:19;;;;;;;0.90;0.90;;;;;;;23.09;61.12;100277.38;4947366;28;20211;-71
2022/06/08 08:38:46;;;;;;;0.90;0.90;;;;;;;23.17;59.67;100277.59;4943356;28;20261;-71
2022/06/08 08:43:56;;;;;;;1.50;1.02;;;;;;;23.36;60.98;100271.50;4941475;28;20357;-71
2022/06/08 08:46:30;;;;;;;1.35;1.10;;;;;;;23.47;60.40;100265.31;4943760;28;20226;-71
2022/06/08 08:49:06;;;;;;;2.90;1.05;;;;;;;23.61;60.16;100262.28;4946821;28;20237;-71
2022/06/08 08:51:41;;;;;;;0.85;0.85;;;;;;;23.78;57.16;100272.31;4944457;28;20242;-71
2022/06/08 08:54:19;;;;;;;1.02;0.95;;;;;;;23.96;54.78;100274.38;4943698;28;20634;-71
2022/06/08 08:56:45;;;;;;;0.90;0.63;;;;;;;24.15;55.21;100271.75;4945122;28;20237;-72
2022/06/08 08:59:14;;;;;;;0.70;0.70;;;;;;;24.43;55.64;100263.97;4944774;28;20638;-72
2022/06/08 09:01:43;;;;;;;0.88;0.88;;;;;;;24.60;54.13;100264.28;4946017;28;20735;-71
2022/06/08 09:04:20;;;;;;;0.65;0.65;;;;;;;24.55;52.63;100262.88;4939017;28;20207;-71
2022/06/08 09:06:47;;;;;;;1.83;0.80;;;;;;;24.68;52.42;100259.09;4943636;28;20209;-71
2022/06/08 09:09:19;;;;;;;0.90;0.90;;;;;;;24.93;53.72;100241.69;4944661;28;20199;-72
2022/06/08 09:11:46;;;;;;;0.90;0.90;;;;;;;25.01;51.83;100244.47;4947161;28;20230;-71
2022/06/08 09:14:17;;;;;;;1.73;0.90;;;;;;;25.06;51.35;100247.53;4945751;28;20207;-71
2022/06/08 09:16:46;;;;;;;1.15;0.90;;;;;;;25.28;51.35;100243.72;4943973;28;20206;-72
2022/06/08 09:19:31;;;;;;;1.20;0.90;;;;;;;25.37;51.23;100247.38;4926927;28;20225;-72
2022/06/08 09:22:19;;;;;;;0.70;0.70;;;;;;;25.14;49.52;100252.16;4944255;28;20249;-72
2022/06/08 09:24:48;;;;;;;1.10;0.90;;;;;;;24.92;49.97;100254.16;4947145;28;20202;-72
2022/06/08 09:27:17;;;;;;;1.25;0.90;;;;;;;24.95;50.22;100243.19;4945417;28;20195;-72
2022/06/08 09:29:50;;;;;;;1.75;0.90;;;;;;;25.31;52.20;100232.78;4941573;28;20211;-72
2022/06/08 09:32:28;;;;;;;0.88;0.80;;;;;;;25.67;50.55;100226.75;4943027;28;20229;-72
2022/06/08 09:34:59;;;;;;;3.53;1.00;;;;;;;25.55;49.73;100225.25;4945292;28;20222;-72
2022/06/08 09:37:27;;;;;;;1.00;0.90;;;;;;;25.54;48.40;100239.56;4944871;28;20198;-72
2022/06/08 09:39:56;;;;;;;0.80;0.80;;;;;;;25.39;48.62;100233.88;4942312;28;20319;-72
2022/06/08 09:42:43;;;;;;;0.98;0.88;;;;;;;24.87;49.77;100236.91;4942657;28;20294;-71
2022/06/08 09:45:25;;;;;;;0.77;0.77;;;;;;;24.51;49.68;100239.28;4940979;28;20211;-71
2022/06/08 09:53:42;;;;;;;0.93;0.80;;;;;;;24.11;51.54;100216.22;4944405;28;20369;-71
2022/06/08 09:56:16;;;;;;;1.25;1.00;;;;;;;24.31;52.79;100209.97;4945852;28;20211;-72
2022/06/08 09:59:00;;;;;;;1.15;0.98;;;;;;;24.34;50.76;100208.81;4943471;28;20377;-72
2022/06/08 10:01:34;;;;;;;0.80;0.80;;;;;;;24.61;51.31;100204.66;4946063;28;20208;-72
2022/06/08 10:04:16;;;;;;;0.80;0.80;;;;;;;24.83;52.16;100206.19;4945058;28;20747;-72
2022/06/08 10:06:54;;;;;;;3.00;1.10;;;;;;;25.20;51.20;100202.72;4941488;28;20409;-72
2022/06/08 10:09:28;;;;;;;0.93;0.90;;;;;;;25.34;49.00;100206.78;4940303;28;20297;-72
2022/06/08 10:12:04;;;;;;;1.50;0.80;;;;;;;25.37;48.51;100207.34;4943079;28;20272;-72
2022/06/08 10:14:42;;;;;;;0.75;0.75;;;;;;;25.24;49.46;100188.97;4931214;28;20746;-72
2022/06/08 10:17:14;;;;;;;1.13;1.00;;;;;;;25.31;49.57;100195.44;4945101;28;20210;-72
2022/06/08 10:19:52;;;;;;;0.80;0.80;;;;;;;24.97;48.57;100189.72;4946603;28;20321;-72
2022/06/08 10:22:27;;;;;;;1.95;1.02;;;;;;;25.27;49.43;100172.69;4943718;28;20266;-72
2022/06/08 10:25:00;;;;;;;1.77;0.90;;;;;;;25.54;49.29;100171.03;4944638;28;20202;-72
2022/06/08 10:27:33;;;;;;;1.23;1.00;;;;;;;25.69;46.78;100184.72;4946207;28;20203;-72
2022/06/08 10:30:08;;;;;;;2.60;0.95;;;;;;;25.72;47.51;100179.09;4942156;28;20216;-72
2022/06/08 10:32:40;;;;;;;1.00;0.95;;;;;;;25.47;46.87;100178.78;4940626;29;20224;-72
2022/06/08 10:35:18;;;;;;;0.80;0.80;;;;;;;25.37;46.44;100174.50;4928320;28;20602;-72
2022/06/08 10:37:47;;;;;;;1.00;0.90;;;;;;;25.58;48.75;100174.25;4946507;28;20202;-72
2022/06/08 10:40:19;;;;;;;1.55;0.82;;;;;;;25.43;47.53;100160.53;4944739;28;20261;-72
2022/06/08 10:42:46;;;;;;;1.40;1.02;;;;;;;25.07;46.94;100160.38;4943940;28;20229;-72
2022/06/08 10:45:37;;;;;;;1.48;1.02;;;;;;;25.01;49.80;100145.81;4941387;28;20966;-72
2022/06/08 10:48:25;;;;;;;0.98;0.98;;;;;;;25.51;47.88;100153.47;4942471;28;20198;-72
2022/06/08 10:51:20;;;;;;;1.20;0.90;;;;;;;25.88;46.59;100149.88;4939501;28;20206;-72
2022/06/08 10:56:49;;;;;;;0.60;0.60;;;;;;;26.29;46.44;100149.47;4948430;28;20206;-72
2022/06/08 10:59:18;;;;;;;1.00;0.80;;;;;;;26.37;42.94;100156.75;4947576;28;20233;-72
2022/06/08 11:01:56;;;;;;;0.80;0.80;;;;;;;26.49;43.82;100143.97;4948323;28;20261;-72
2022/06/08 11:04:49;;;;;;;0.70;0.70;;;;;;;26.77;44.99;100139.34;4946047;28;20206;-72
2022/06/08 11:07:17;;;;;;;0.68;0.68;;;;;;;26.80;41.50;100147.88;4947429;28;20198;-72
2022/06/08 11:09:56;;;;;;;0.90;0.90;;;;;;;26.89;42.62;100142.59;4929020;29;20203;-72
2022/06/08 11:12:51;;;;;;;1.00;0.90;;;;;;;26.66;41.45;100152.97;4964978;23;20236;-73
2022/06/08 11:15:27;;;;;;;0.77;0.73;;;;;;;26.75;43.23;100144.84;4937263;28;20304;-74
2022/06/08 11:17:58;;;;;;;0.80;0.80;;;;;;;26.63;42.29;100135.41;4948886;28;20213;-72
2022/06/08 11:20:36;;;;;;;0.82;0.70;;;;;;;26.11;42.56;100137.97;4949064;28;20781;-73
2022/06/08 11:23:10;;;;;;;1.33;0.80;;;;;;;26.21;42.45;100133.41;4951756;28;20225;-74
2022/06/08 11:25:48;;;;;;;1.23;0.80;;;;;;;26.61;42.18;100132.03;4950854;28;20226;-72
2022/06/08 11:28:31;;;;;;;0.55;0.55;;;;;;;26.93;42.34;100120.75;4948868;28;20224;-74
2022/06/08 11:31:00;;;;;;;0.88;0.80;;;;;;;26.59;41.89;100129.50;4947155;28;20199;-74
2022/06/08 11:34:12;;;;;;;1.30;0.85;;;;;;;26.42;41.58;100127.72;4951040;28;20222;-74
2022/06/08 11:36:58;;;;;;;0.80;0.80;;;;;;;26.88;42.07;100119.53;4948078;28;20269;-74
2022/06/08 11:39:29;;;;;;;1.65;0.70;;;;;;;27.00;39.17;100120.97;4949351;28;20210;-73
2022/06/08 11:42:22;;;;;;;1.05;0.90;;;;;;;27.19;41.86;100114.50;4948578;28;20293;-71
2022/06/08 11:44:52;;;;;;;0.80;0.80;;;;;;;26.81;41.27;100116.66;4945131;28;20213;-73
2022/06/08 11:47:26;;;;;;;1.42;0.77;;;;;;;26.72;41.55;100115.78;4945206;28;20326;-75
2022/06/08 11:49:59;;;;;;;0.98;0.80;;;;;;;27.10;43.24;100110.13;4947545;28;20212;-75
2022/06/08 11:52:37;;;;;;;0.70;0.70;;;;;;;27.34;41.92;100106.75;4948209;28;20227;-74
2022/06/08 11:55:20;;;;;;;0.70;0.70;;;;;;;27.51;38.49;100113.84;4949445;28;20202;-74